createdAt,value
2018-11-05T00:00:50.346Z,38.40
2018-11-05T00:01:50.370Z,37.10
2018-11-05T00:02:50.360Z,37.50
2018-11-05T00:03:50.362Z,37.30
2018-11-05T00:04:50.345Z,37.90
2018-11-05T00:05:50.379Z,38.70
2018-11-05T00:06:50.352Z,40.00
2018-11-05T00:07:50.348Z,38.50
2018-11-05T00:08:50.343Z,36.80
2018-11-05T00:09:50.389Z,39.30
2018-11-05T00:10:50.348Z,38.70
2018-11-05T00:11:50.362Z,37.00
2018-11-05T00:12:50.346Z,38.10
2018-11-05T00:13:50.372Z,37.00
2018-11-05T00:14:50.359Z,37.10
2018-11-05T00:15:50.363Z,38.20
2018-11-05T00:16:50.354Z,35.60
2018-11-05T00:17:50.351Z,37.40
2018-11-05T00:18:50.353Z,39.20
2018-11-05T00:19:50.339Z,38.40
2018-11-05T00:20:50.342Z,37.30
2018-11-05T00:21:50.349Z,37.50
2018-11-05T00:22:50.346Z,36.10
2018-11-05T00:23:50.348Z,37.80
2018-11-05T00:24:50.353Z,38.20
2018-11-05T00:25:50.357Z,39.10
2018-11-05T00:26:50.348Z,36.50
2018-11-05T00:27:50.339Z,37.00
2018-11-05T00:28:50.332Z,37.80
2018-11-05T00:29:50.332Z,38.40
2018-11-05T00:30:50.348Z,37.80
2018-11-05T00:31:50.342Z,37.80
2018-11-05T00:32:50.346Z,38.30
2018-11-05T00:33:50.349Z,38.40
2018-11-05T00:34:50.370Z,38.10
2018-11-05T00:35:50.366Z,39.00
2018-11-05T00:36:50.330Z,38.10
2018-11-05T00:37:50.350Z,38.60
2018-11-05T00:38:50.334Z,36.60
2018-11-05T00:39:50.337Z,38.00
2018-11-05T00:40:50.342Z,37.60
2018-11-05T00:41:50.348Z,39.60
2018-11-05T00:42:50.336Z,37.30
2018-11-05T00:43:50.327Z,37.60
2018-11-05T00:44:50.334Z,37.00
2018-11-05T00:45:50.436Z,38.00
2018-11-05T00:46:50.330Z,38.10
2018-11-05T00:47:50.347Z,39.80
2018-11-05T00:48:50.351Z,40.60
2018-11-05T00:49:50.326Z,39.20
2018-11-05T00:50:50.339Z,38.80
2018-11-05T00:51:50.338Z,38.90
2018-11-05T00:52:50.318Z,39.60
2018-11-05T00:53:50.330Z,41.30
2018-11-05T00:54:50.326Z,40.70
2018-11-05T00:55:50.329Z,41.90
2018-11-05T00:56:50.330Z,41.30
2018-11-05T00:57:50.328Z,39.80
2018-11-05T00:58:50.342Z,41.20
2018-11-05T00:59:50.361Z,39.80
2018-11-05T01:00:50.334Z,40.60
2018-11-05T01:01:50.333Z,40.50
2018-11-05T01:02:50.347Z,41.60
2018-11-05T01:03:50.316Z,39.40
2018-11-05T01:04:50.360Z,40.40
2018-11-05T01:05:50.336Z,40.20
2018-11-05T01:06:50.310Z,41.40
2018-11-05T01:07:50.369Z,40.40
2018-11-05T01:08:50.327Z,42.10
2018-11-05T01:09:50.318Z,41.40
2018-11-05T01:10:50.316Z,41.50
2018-11-05T01:11:50.324Z,42.40
2018-11-05T01:12:50.322Z,42.40
2018-11-05T01:13:50.311Z,44.00
2018-11-05T01:14:50.309Z,43.40
2018-11-05T01:15:50.312Z,43.10
2018-11-05T01:16:50.318Z,43.00
2018-11-05T01:17:50.310Z,42.50
2018-11-05T01:18:50.332Z,42.70
2018-11-05T01:19:50.303Z,43.40
2018-11-05T01:20:50.305Z,41.10
2018-11-05T01:21:50.304Z,42.60
2018-11-05T01:22:50.309Z,43.60
2018-11-05T01:23:50.311Z,43.40
2018-11-05T01:24:50.310Z,43.40
2018-11-05T01:25:50.298Z,43.10
2018-11-05T01:26:50.300Z,42.20
2018-11-05T01:27:50.311Z,43.10
2018-11-05T01:28:50.312Z,41.80
2018-11-05T01:29:50.303Z,42.70
2018-11-05T01:30:50.315Z,44.40
2018-11-05T01:31:50.320Z,45.20
2018-11-05T01:32:50.334Z,42.90
2018-11-05T01:33:50.338Z,44.20
2018-11-05T01:34:50.303Z,43.50
2018-11-05T01:35:50.350Z,43.10
2018-11-05T01:36:50.307Z,43.60
2018-11-05T01:37:50.309Z,44.50
2018-11-05T01:38:50.311Z,43.60
2018-11-05T01:39:50.297Z,45.30
2018-11-05T01:40:50.302Z,46.00
2018-11-05T01:41:50.300Z,44.90
2018-11-05T01:42:50.289Z,45.40
2018-11-05T01:43:50.299Z,44.90
2018-11-05T01:44:50.306Z,46.10
2018-11-05T01:45:50.303Z,44.40
2018-11-05T01:46:50.291Z,46.20
2018-11-05T01:47:50.286Z,46.40
2018-11-05T01:48:50.289Z,44.40
2018-11-05T01:49:50.287Z,43.60
2018-11-05T01:50:50.282Z,43.80
2018-11-05T01:51:50.283Z,44.20
2018-11-05T01:52:50.305Z,45.70
2018-11-05T01:53:50.278Z,44.00
2018-11-05T01:54:50.299Z,44.20
2018-11-05T01:55:50.311Z,43.20
2018-11-05T01:56:50.299Z,45.40
2018-11-05T01:57:50.289Z,44.40
2018-11-05T01:58:50.304Z,43.60
2018-11-05T01:59:52.902Z,42.80
2018-11-05T02:00:50.281Z,44.40
2018-11-05T02:01:50.284Z,42.80
2018-11-05T02:02:50.289Z,42.60
2018-11-05T02:03:50.282Z,42.70
2018-11-05T02:04:50.307Z,42.30
2018-11-05T02:05:50.291Z,41.70
2018-11-05T02:06:50.271Z,42.30
2018-11-05T02:07:50.276Z,41.80
2018-11-05T02:08:50.293Z,43.60
2018-11-05T02:09:50.287Z,41.30
2018-11-05T02:10:50.287Z,43.80
2018-11-05T02:11:50.292Z,44.10
2018-11-05T02:12:50.295Z,44.30
2018-11-05T02:13:50.275Z,43.70
2018-11-05T02:14:50.287Z,42.40
2018-11-05T02:15:50.317Z,42.90
2018-11-05T02:16:50.273Z,41.20
2018-11-05T02:17:50.272Z,42.80
2018-11-05T02:18:50.294Z,41.30
2018-11-05T02:19:50.269Z,42.60
2018-11-05T02:20:50.279Z,41.00
2018-11-05T02:21:50.288Z,42.10
2018-11-05T02:22:50.266Z,42.20
2018-11-05T02:23:50.264Z,42.20
2018-11-05T02:24:50.260Z,41.80
2018-11-05T02:25:50.267Z,42.70
2018-11-05T02:26:50.267Z,41.40
2018-11-05T02:27:50.269Z,43.10
2018-11-05T02:28:50.273Z,41.80
2018-11-05T02:29:50.264Z,42.50
2018-11-05T02:30:50.279Z,41.30
2018-11-05T02:31:50.264Z,41.50
2018-11-05T02:32:50.256Z,39.80
2018-11-05T02:33:50.270Z,41.70
2018-11-05T02:34:50.252Z,42.00
2018-11-05T02:35:50.271Z,41.90
2018-11-05T02:36:50.259Z,42.30
2018-11-05T02:37:50.260Z,41.40
2018-11-05T02:38:50.307Z,42.40
2018-11-05T02:39:50.268Z,42.90
2018-11-05T02:40:50.257Z,42.20
2018-11-05T02:41:50.263Z,41.60
2018-11-05T02:42:50.285Z,42.50
2018-11-05T02:43:50.274Z,42.10
2018-11-05T02:44:50.252Z,42.70
2018-11-05T02:45:50.262Z,43.10
2018-11-05T02:46:50.250Z,43.00
2018-11-05T02:47:50.269Z,42.40
2018-11-05T02:48:50.251Z,41.90
2018-11-05T02:49:50.253Z,42.50
2018-11-05T02:50:50.257Z,41.10
2018-11-05T02:51:50.244Z,40.20
2018-11-05T02:52:50.247Z,42.60
2018-11-05T02:53:50.263Z,40.20
2018-11-05T02:54:50.243Z,40.60
2018-11-05T02:55:50.254Z,39.40
2018-11-05T02:56:50.248Z,43.70
2018-11-05T02:57:50.261Z,41.70
2018-11-05T02:58:50.249Z,40.80
2018-11-05T02:59:50.273Z,43.40
2018-11-05T03:00:50.237Z,43.70
2018-11-05T03:01:50.263Z,40.80
2018-11-05T03:02:50.253Z,39.80
2018-11-05T03:03:50.243Z,41.20
2018-11-05T03:04:50.246Z,40.70
2018-11-05T03:05:50.257Z,39.90
2018-11-05T03:06:50.260Z,38.40
2018-11-05T03:07:50.258Z,42.50
2018-11-05T03:08:50.252Z,41.40
2018-11-05T03:09:50.234Z,40.60
2018-11-05T03:10:50.238Z,38.60
2018-11-05T03:11:50.233Z,39.90
2018-11-05T03:12:50.241Z,41.70
2018-11-05T03:13:50.234Z,41.80
2018-11-05T03:14:50.246Z,39.50
2018-11-05T03:15:50.252Z,37.60
2018-11-05T03:16:50.241Z,44.00
2018-11-05T03:17:50.229Z,43.00
2018-11-05T03:18:50.237Z,41.60
2018-11-05T03:19:50.248Z,41.10
2018-11-05T03:20:50.247Z,43.10
2018-11-05T03:21:50.235Z,44.40
2018-11-05T03:22:50.240Z,41.80
2018-11-05T03:23:50.238Z,43.40
2018-11-05T03:24:50.234Z,42.30
2018-11-05T03:25:50.256Z,45.10
2018-11-05T03:26:50.242Z,44.40
2018-11-05T03:27:50.223Z,40.30
2018-11-05T03:28:50.217Z,40.20
2018-11-05T03:29:50.229Z,41.90
2018-11-05T03:30:50.236Z,40.50
2018-11-05T03:31:50.226Z,43.70
2018-11-05T03:32:50.218Z,43.60
2018-11-05T03:33:50.235Z,43.10
2018-11-05T03:34:50.215Z,43.90
2018-11-05T03:35:50.304Z,44.70
2018-11-05T03:36:50.224Z,44.80
2018-11-05T03:37:50.223Z,42.20
2018-11-05T03:38:50.207Z,45.00
2018-11-05T03:39:50.213Z,41.60
2018-11-05T03:40:50.245Z,44.50
2018-11-05T03:41:50.221Z,43.10
2018-11-05T03:42:50.244Z,42.30
2018-11-05T03:43:50.224Z,42.90
2018-11-05T03:44:50.225Z,43.10
2018-11-05T03:45:50.208Z,42.70
2018-11-05T03:46:50.222Z,43.40
2018-11-05T03:47:50.205Z,44.50
2018-11-05T03:48:50.211Z,43.70
2018-11-05T03:49:50.223Z,43.80
2018-11-05T03:50:50.213Z,44.30
2018-11-05T03:51:50.224Z,42.30
2018-11-05T03:52:50.205Z,43.20
2018-11-05T03:53:50.219Z,41.50
2018-11-05T03:54:50.224Z,41.10
2018-11-05T03:55:50.204Z,40.50
2018-11-05T03:56:50.316Z,41.80
2018-11-05T03:57:50.220Z,41.80
2018-11-05T03:58:50.209Z,41.70
2018-11-05T03:59:50.212Z,44.10
2018-11-05T04:00:50.205Z,43.30
2018-11-05T04:01:50.193Z,42.60
2018-11-05T04:02:50.196Z,44.30
2018-11-05T04:03:50.201Z,41.40
2018-11-05T04:04:50.207Z,44.30
2018-11-05T04:05:50.214Z,40.10
2018-11-05T04:06:50.208Z,43.00
2018-11-05T04:07:50.209Z,43.90
2018-11-05T04:08:50.195Z,46.30
2018-11-05T04:09:50.204Z,44.30
2018-11-05T04:10:50.207Z,41.80
2018-11-05T04:11:50.192Z,42.60
2018-11-05T04:12:50.193Z,40.30
2018-11-05T04:13:50.185Z,40.20
2018-11-05T04:14:50.196Z,42.50
2018-11-05T04:15:50.223Z,43.70
2018-11-05T04:16:50.190Z,41.80
2018-11-05T04:17:50.190Z,41.30
2018-11-05T04:18:50.193Z,42.40
2018-11-05T04:19:50.228Z,43.60
2018-11-05T04:20:50.192Z,41.80
2018-11-05T04:21:50.212Z,41.80
2018-11-05T04:22:50.222Z,42.10
2018-11-05T04:23:50.192Z,44.10
2018-11-05T04:24:50.178Z,41.70
2018-11-05T04:25:50.187Z,43.50
2018-11-05T04:26:50.174Z,44.60
2018-11-05T04:27:50.236Z,41.70
2018-11-05T04:28:50.194Z,43.50
2018-11-05T04:29:50.175Z,42.80
2018-11-05T04:30:50.183Z,41.90
2018-11-05T04:31:50.178Z,44.00
2018-11-05T04:32:50.209Z,44.50
2018-11-05T04:33:50.187Z,43.80
2018-11-05T04:34:50.187Z,45.60
2018-11-05T04:35:50.181Z,47.00
2018-11-05T04:36:50.186Z,44.00
2018-11-05T04:37:50.210Z,44.30
2018-11-05T04:38:50.165Z,51.30
2018-11-05T04:39:50.181Z,42.90
2018-11-05T04:40:50.169Z,47.50
2018-11-05T04:41:50.174Z,44.60
2018-11-05T04:42:50.173Z,46.80
2018-11-05T04:43:50.185Z,47.50
2018-11-05T04:44:50.175Z,46.00
2018-11-05T04:45:50.182Z,42.00
2018-11-05T04:46:50.167Z,45.80
2018-11-05T04:47:51.946Z,47.10
2018-11-05T04:48:50.184Z,48.30
2018-11-05T04:49:50.180Z,49.80
2018-11-05T04:50:50.182Z,46.00
2018-11-05T04:51:50.168Z,45.80
2018-11-05T04:52:50.160Z,48.00
2018-11-05T04:53:50.159Z,49.60
2018-11-05T04:54:50.161Z,47.40
2018-11-05T04:55:50.175Z,49.20
2018-11-05T04:56:50.156Z,49.20
2018-11-05T04:57:50.172Z,51.60
2018-11-05T04:58:52.925Z,53.10
2018-11-05T04:59:50.163Z,52.20
2018-11-05T05:00:50.169Z,51.20
2018-11-05T05:01:50.168Z,51.60
2018-11-05T05:02:50.175Z,49.30
2018-11-05T05:03:50.185Z,49.30
2018-11-05T05:04:50.173Z,51.30
2018-11-05T05:05:50.173Z,51.00
2018-11-05T05:06:50.156Z,55.40
2018-11-05T05:07:50.147Z,55.90
2018-11-05T05:08:50.160Z,53.10
2018-11-05T05:09:50.152Z,54.00
2018-11-05T05:10:50.160Z,49.80
2018-11-05T05:11:50.155Z,52.90
2018-11-05T05:12:50.159Z,53.90
2018-11-05T05:13:50.167Z,53.10
2018-11-05T05:14:50.149Z,57.00
2018-11-05T05:15:50.162Z,56.40
2018-11-05T05:16:50.171Z,53.60
2018-11-05T05:17:50.146Z,53.50
2018-11-05T05:18:50.160Z,51.90
2018-11-05T05:19:50.188Z,50.30
2018-11-05T05:20:50.165Z,59.20
2018-11-05T05:21:50.142Z,57.10
2018-11-05T05:22:50.314Z,56.10
2018-11-05T05:23:50.152Z,55.20
2018-11-05T05:24:50.137Z,58.50
2018-11-05T05:25:50.127Z,56.30
2018-11-05T05:26:50.149Z,53.90
2018-11-05T05:27:50.139Z,61.70
2018-11-05T05:28:50.157Z,57.50
2018-11-05T05:29:50.138Z,56.40
2018-11-05T05:30:50.132Z,57.10
2018-11-05T05:31:50.133Z,64.20
2018-11-05T05:32:50.138Z,60.10
2018-11-05T05:33:50.144Z,64.40
2018-11-05T05:34:50.873Z,61.60
2018-11-05T05:35:50.124Z,56.70
2018-11-05T05:36:50.148Z,63.70
2018-11-05T05:37:50.127Z,65.60
2018-11-05T05:38:50.126Z,54.40
2018-11-05T05:39:50.139Z,58.50
2018-11-05T05:40:50.161Z,57.50
2018-11-05T05:41:50.125Z,60.70
2018-11-05T05:42:50.123Z,63.30
2018-11-05T05:43:50.138Z,63.20
2018-11-05T05:44:50.128Z,58.90
2018-11-05T05:45:50.137Z,65.10
2018-11-05T05:46:50.130Z,62.00
2018-11-05T05:47:50.119Z,60.70
2018-11-05T05:48:50.111Z,58.90
2018-11-05T05:49:50.114Z,62.90
2018-11-05T05:50:50.123Z,60.40
2018-11-05T05:51:50.126Z,61.00
2018-11-05T05:52:50.124Z,61.20
2018-11-05T05:53:50.128Z,62.20
2018-11-05T05:54:50.103Z,54.70
2018-11-05T05:55:50.130Z,60.60
2018-11-05T05:56:50.118Z,60.90
2018-11-05T05:57:50.105Z,61.80
2018-11-05T05:58:50.113Z,60.10
2018-11-05T05:59:50.152Z,61.10
2018-11-05T06:00:50.109Z,59.00
2018-11-05T06:01:50.114Z,55.90
2018-11-05T06:02:50.138Z,58.70
2018-11-05T06:03:50.106Z,60.80
2018-11-05T06:04:50.112Z,50.30
2018-11-05T06:05:50.159Z,57.50
2018-11-05T06:06:50.129Z,52.70
2018-11-05T06:07:50.115Z,57.80
2018-11-05T06:08:50.118Z,55.10
2018-11-05T06:09:50.157Z,54.60
2018-11-05T06:10:50.119Z,52.70
2018-11-05T06:11:50.118Z,56.70
2018-11-05T06:12:50.112Z,53.20
2018-11-05T06:13:50.104Z,54.10
2018-11-05T06:14:50.095Z,53.10
2018-11-05T06:15:50.107Z,53.70
2018-11-05T06:16:50.124Z,56.90
2018-11-05T06:17:50.093Z,54.80
2018-11-05T06:18:50.095Z,51.90
2018-11-05T06:19:50.105Z,48.40
2018-11-05T06:20:50.123Z,51.80
2018-11-05T06:21:50.158Z,51.50
2018-11-05T06:22:50.100Z,52.20
2018-11-05T06:23:50.118Z,52.90
2018-11-05T06:24:50.095Z,51.00
2018-11-05T06:25:50.096Z,52.80
2018-11-05T06:26:50.105Z,52.30
2018-11-05T06:27:50.115Z,49.20
2018-11-05T06:28:50.107Z,50.70
2018-11-05T06:29:50.113Z,52.60
2018-11-05T06:30:50.085Z,51.80
2018-11-05T06:31:50.100Z,51.90
2018-11-05T06:32:50.110Z,51.90
2018-11-05T06:33:50.084Z,53.80
2018-11-05T06:34:50.088Z,51.40
2018-11-05T06:35:50.109Z,54.60
2018-11-05T06:36:50.098Z,51.00
2018-11-05T06:37:50.097Z,51.70
2018-11-05T06:38:50.082Z,51.00
2018-11-05T06:39:50.088Z,51.80
2018-11-05T06:40:50.100Z,49.60
2018-11-05T06:41:50.312Z,50.00
2018-11-05T06:42:50.076Z,53.90
2018-11-05T06:43:50.083Z,54.50
2018-11-05T06:44:50.103Z,49.20
2018-11-05T06:45:50.110Z,50.20
2018-11-05T06:46:50.091Z,52.20
2018-11-05T06:47:50.084Z,49.90
2018-11-05T06:48:50.155Z,51.50
2018-11-05T06:49:50.090Z,50.40
2018-11-05T06:50:50.086Z,52.80
2018-11-05T06:51:50.079Z,53.30
2018-11-05T06:52:50.173Z,52.50
2018-11-05T06:53:50.098Z,54.80
2018-11-05T06:54:50.085Z,51.60
2018-11-05T06:55:50.085Z,52.10
2018-11-05T06:56:50.091Z,51.40
2018-11-05T06:57:50.202Z,51.60
2018-11-05T06:58:50.076Z,52.10
2018-11-05T06:59:50.082Z,53.60
2018-11-05T07:00:50.070Z,54.50
2018-11-05T07:01:50.079Z,54.30
2018-11-05T07:02:50.086Z,59.10
2018-11-05T07:03:50.085Z,74.80
2018-11-05T07:04:50.070Z,80.70
2018-11-05T07:05:50.158Z,61.60
2018-11-05T07:06:50.081Z,59.50
2018-11-05T07:07:50.070Z,58.50
2018-11-05T07:08:50.087Z,55.20
2018-11-05T07:09:50.108Z,53.70
2018-11-05T07:10:50.133Z,57.30
2018-11-05T07:11:50.110Z,53.80
2018-11-05T07:12:50.102Z,54.00
2018-11-05T07:13:50.072Z,54.70
2018-11-05T07:14:50.075Z,55.20
2018-11-05T07:15:50.075Z,54.80
2018-11-05T07:16:50.079Z,53.60
2018-11-05T07:17:50.067Z,54.50
2018-11-05T07:18:50.156Z,53.90
2018-11-05T07:19:50.070Z,55.00
2018-11-05T07:20:50.077Z,55.50
2018-11-05T07:21:50.077Z,53.80
2018-11-05T07:22:50.106Z,53.10
2018-11-05T07:23:50.081Z,57.10
2018-11-05T07:24:50.082Z,57.30
2018-11-05T07:25:50.120Z,57.60
2018-11-05T07:26:50.199Z,55.10
2018-11-05T07:27:50.180Z,55.30
2018-11-05T07:28:50.072Z,59.30
2018-11-05T07:29:50.075Z,55.60
2018-11-05T07:30:50.387Z,57.50
2018-11-05T07:31:50.081Z,56.50
2018-11-05T07:32:50.076Z,58.40
2018-11-05T07:33:50.192Z,58.50
2018-11-05T07:34:50.062Z,56.50
2018-11-05T07:35:50.078Z,58.00
2018-11-05T07:36:50.066Z,57.80
2018-11-05T07:37:50.068Z,55.60
2018-11-05T07:38:50.148Z,57.50
2018-11-05T07:39:50.074Z,55.40
2018-11-05T07:40:50.077Z,56.50
2018-11-05T07:41:50.082Z,56.70
2018-11-05T07:42:50.090Z,57.40
2018-11-05T07:43:50.096Z,58.80
2018-11-05T07:44:50.090Z,57.80
2018-11-05T07:45:50.062Z,58.40
2018-11-05T07:46:50.063Z,59.70
2018-11-05T07:47:50.080Z,57.20
2018-11-05T07:48:50.073Z,58.40
2018-11-05T07:49:50.065Z,55.70
2018-11-05T07:50:50.159Z,56.20
2018-11-05T07:51:50.070Z,56.10
2018-11-05T07:52:50.082Z,57.00
2018-11-05T07:53:50.090Z,57.60
2018-11-05T07:54:50.073Z,58.70
2018-11-05T07:55:50.075Z,59.70
2018-11-05T07:56:50.073Z,59.90
2018-11-05T07:57:50.073Z,59.80
2018-11-05T07:58:50.083Z,58.80
2018-11-05T07:59:50.057Z,59.60
2018-11-05T08:00:50.065Z,58.80
2018-11-05T08:01:50.061Z,57.80
2018-11-05T08:02:50.149Z,57.20
2018-11-05T08:03:50.089Z,59.30
2018-11-05T08:04:50.077Z,65.50
2018-11-05T08:05:50.066Z,56.70
2018-11-05T08:06:50.067Z,59.00
2018-11-05T08:07:50.079Z,59.50
2018-11-05T08:08:50.091Z,55.90
2018-11-05T08:09:50.104Z,56.50
2018-11-05T08:10:50.080Z,56.40
2018-11-05T08:11:50.080Z,58.30
2018-11-05T08:12:50.092Z,56.30
2018-11-05T08:13:50.082Z,58.90
2018-11-05T08:14:50.064Z,57.70
2018-11-05T08:15:50.055Z,58.70
2018-11-05T08:16:50.076Z,58.40
2018-11-05T08:17:50.107Z,59.00
2018-11-05T08:18:50.072Z,59.00
2018-11-05T08:19:50.097Z,58.60
2018-11-05T08:20:50.090Z,57.70
2018-11-05T08:21:50.081Z,56.00
2018-11-05T08:22:50.090Z,57.60
2018-11-05T08:23:50.074Z,55.90
2018-11-05T08:24:50.059Z,55.60
2018-11-05T08:25:50.119Z,55.40
2018-11-05T08:26:50.077Z,55.90
2018-11-05T08:27:50.063Z,55.60
2018-11-05T08:28:50.099Z,57.50
2018-11-05T08:29:50.124Z,54.40
2018-11-05T08:30:50.063Z,56.30
2018-11-05T08:31:50.065Z,55.70
2018-11-05T08:32:50.072Z,54.10
2018-11-05T08:33:50.061Z,55.50
2018-11-05T08:34:50.072Z,57.40
2018-11-05T08:35:50.071Z,54.80
2018-11-05T08:36:50.074Z,53.90
2018-11-05T08:37:50.055Z,54.50
2018-11-05T08:38:50.056Z,55.10
2018-11-05T08:39:50.072Z,54.80
2018-11-05T08:40:50.074Z,53.80
2018-11-05T08:41:50.060Z,54.20
2018-11-05T08:42:50.096Z,54.40
2018-11-05T08:43:50.073Z,54.40
2018-11-05T08:44:50.092Z,50.60
2018-11-05T08:45:50.075Z,51.50
2018-11-05T08:46:50.100Z,49.90
2018-11-05T08:47:50.062Z,50.90
2018-11-05T08:48:50.074Z,50.70
2018-11-05T08:49:50.066Z,51.90
2018-11-05T08:50:50.152Z,49.30
2018-11-05T08:51:50.138Z,51.80
2018-11-05T08:52:50.072Z,50.40
2018-11-05T08:53:50.134Z,97.10
2018-11-05T08:54:50.085Z,65.50
2018-11-05T08:55:50.080Z,53.20
2018-11-05T08:56:50.065Z,50.80
2018-11-05T08:57:50.150Z,49.60
2018-11-05T08:58:50.087Z,47.20
2018-11-05T08:59:50.083Z,48.30
2018-11-05T09:00:50.158Z,49.00
2018-11-05T09:01:50.091Z,47.20
2018-11-05T09:02:50.074Z,47.30
2018-11-05T09:03:50.068Z,46.50
2018-11-05T09:04:50.220Z,45.90
2018-11-05T09:05:50.084Z,45.10
2018-11-05T09:06:50.072Z,45.10
2018-11-05T09:07:50.073Z,43.40
2018-11-05T09:08:50.150Z,48.10
2018-11-05T09:09:50.118Z,47.00
2018-11-05T09:10:50.483Z,45.60
2018-11-05T09:11:50.082Z,45.70
2018-11-05T09:12:50.085Z,44.70
2018-11-05T09:13:50.083Z,45.00
2018-11-05T09:14:50.099Z,43.70
2018-11-05T09:15:50.109Z,43.80
2018-11-05T09:16:50.094Z,43.40
2018-11-05T09:17:50.098Z,45.30
2018-11-05T09:18:50.097Z,44.90
2018-11-05T09:19:50.107Z,44.20
2018-11-05T09:20:50.168Z,43.70
2018-11-05T09:21:50.081Z,43.60
2018-11-05T09:22:50.118Z,43.40
2018-11-05T09:23:50.090Z,43.10
2018-11-05T09:24:50.100Z,42.50
2018-11-05T09:25:50.104Z,43.30
2018-11-05T09:26:50.092Z,40.90
2018-11-05T09:27:50.128Z,41.60
2018-11-05T09:28:50.131Z,41.80
2018-11-05T09:29:50.098Z,41.70
2018-11-05T09:30:50.106Z,40.20
2018-11-05T09:31:50.120Z,41.50
2018-11-05T09:32:50.115Z,40.60
2018-11-05T09:33:50.102Z,41.60
2018-11-05T09:34:50.110Z,41.50
2018-11-05T09:35:50.105Z,40.20
2018-11-05T09:36:50.131Z,39.80
2018-11-05T09:37:50.125Z,40.90
2018-11-05T09:38:50.091Z,40.20
2018-11-05T09:39:50.121Z,40.40
2018-11-05T09:40:50.092Z,39.90
2018-11-05T09:41:50.090Z,40.50
2018-11-05T09:42:50.196Z,39.40
2018-11-05T09:43:50.102Z,40.00
2018-11-05T09:44:50.105Z,39.30
2018-11-05T09:45:50.112Z,38.40
2018-11-05T09:46:50.132Z,38.50
2018-11-05T09:47:50.102Z,38.70
2018-11-05T09:48:50.113Z,38.40
2018-11-05T09:49:50.104Z,37.50
2018-11-05T09:50:50.180Z,38.30
2018-11-05T09:51:50.133Z,37.10
2018-11-05T09:52:50.112Z,38.20
2018-11-05T09:53:50.115Z,38.40
2018-11-05T09:54:50.147Z,36.50
2018-11-05T09:55:50.126Z,37.10
2018-11-05T09:56:52.012Z,36.50
2018-11-05T09:57:50.110Z,37.10
2018-11-05T09:58:50.202Z,35.00
2018-11-05T09:59:50.201Z,34.90
2018-11-05T10:00:50.307Z,37.00
2018-11-05T10:01:50.970Z,38.90
2018-11-05T10:02:50.251Z,36.40
2018-11-05T10:03:50.156Z,34.60
2018-11-05T10:04:50.487Z,34.50
2018-11-05T10:05:50.112Z,33.20
2018-11-05T10:06:50.117Z,35.30
2018-11-05T10:07:50.124Z,33.10
2018-11-05T10:08:50.122Z,33.30
2018-11-05T10:09:50.227Z,34.40
2018-11-05T10:10:50.139Z,35.20
2018-11-05T10:11:50.170Z,33.50
2018-11-05T10:12:50.137Z,34.30
2018-11-05T10:13:50.119Z,33.00
2018-11-05T10:14:50.163Z,32.80
2018-11-05T10:15:50.130Z,32.60
2018-11-05T10:16:50.151Z,33.10
2018-11-05T10:17:50.116Z,32.40
2018-11-05T10:18:50.118Z,33.10
2018-11-05T10:19:50.139Z,31.70
2018-11-05T10:20:50.185Z,32.40
2018-11-05T10:21:50.140Z,32.30
2018-11-05T10:22:50.139Z,31.00
2018-11-05T10:23:50.145Z,32.80
2018-11-05T10:24:50.311Z,31.90
2018-11-05T10:25:50.143Z,33.30
2018-11-05T10:26:50.139Z,31.30
2018-11-05T10:27:50.186Z,31.00
2018-11-05T10:28:50.220Z,33.40
2018-11-05T10:29:50.160Z,32.30
2018-11-05T10:30:50.135Z,29.80
2018-11-05T10:31:50.139Z,30.00
2018-11-05T10:32:50.185Z,31.70
2018-11-05T10:33:50.194Z,31.00
2018-11-05T10:34:50.129Z,31.00
2018-11-05T10:35:50.137Z,31.40
2018-11-05T10:36:50.172Z,30.60
2018-11-05T10:37:50.184Z,31.00
2018-11-05T10:38:50.143Z,30.40
2018-11-05T10:39:50.150Z,29.70
2018-11-05T10:40:50.153Z,31.10
2018-11-05T10:41:50.151Z,30.40
2018-11-05T10:42:50.177Z,30.50
2018-11-05T10:43:50.144Z,31.70
2018-11-05T10:44:50.174Z,31.60
2018-11-05T10:45:50.161Z,33.10
2018-11-05T10:46:50.150Z,31.50
2018-11-05T10:47:50.191Z,33.10
2018-11-05T10:48:50.169Z,31.90
2018-11-05T10:49:50.176Z,32.70
2018-11-05T10:50:50.161Z,32.60
2018-11-05T10:51:50.284Z,32.70
2018-11-05T10:52:50.149Z,31.60
2018-11-05T10:53:50.164Z,32.60
2018-11-05T10:54:50.153Z,32.50
2018-11-05T10:55:50.174Z,31.60
2018-11-05T10:56:50.191Z,31.50
2018-11-05T10:57:50.149Z,31.60
2018-11-05T10:58:50.160Z,32.10
2018-11-05T10:59:50.157Z,31.80
2018-11-05T11:00:50.160Z,30.50
2018-11-05T11:01:50.189Z,31.30
2018-11-05T11:02:50.199Z,30.30
2018-11-05T11:03:50.321Z,32.00
2018-11-05T11:04:50.187Z,33.00
2018-11-05T11:05:50.202Z,33.50
2018-11-05T11:06:50.203Z,31.70
2018-11-05T11:07:50.171Z,31.70
2018-11-05T11:08:50.196Z,30.40
2018-11-05T11:09:50.159Z,30.70
2018-11-05T11:10:50.172Z,36.00
2018-11-05T11:11:50.179Z,29.40
2018-11-05T11:12:50.169Z,30.00
2018-11-05T11:13:50.180Z,29.20
2018-11-05T11:14:50.163Z,29.00
2018-11-05T11:15:50.184Z,28.90
2018-11-05T11:16:50.166Z,29.80
2018-11-05T11:17:50.200Z,30.30
2018-11-05T11:18:50.186Z,27.20
2018-11-05T11:19:50.194Z,29.50
2018-11-05T11:20:50.216Z,28.00
2018-11-05T11:21:50.237Z,28.50
2018-11-05T11:22:50.185Z,28.40
2018-11-05T11:23:50.171Z,29.50
2018-11-05T11:24:50.177Z,28.60
2018-11-05T11:25:50.209Z,29.90
2018-11-05T11:26:50.181Z,29.10
2018-11-05T11:27:50.370Z,29.10
2018-11-05T11:28:50.319Z,27.90
2018-11-05T11:29:50.200Z,30.30
2018-11-05T11:30:50.196Z,29.30
2018-11-05T11:31:50.185Z,29.90
2018-11-05T11:32:50.199Z,27.80
2018-11-05T11:33:50.193Z,28.50
2018-11-05T11:34:50.242Z,27.70
2018-11-05T11:35:50.242Z,27.30
2018-11-05T11:36:50.199Z,28.00
2018-11-05T11:37:50.204Z,27.40
2018-11-05T11:38:50.210Z,27.70
2018-11-05T11:39:50.211Z,28.80
2018-11-05T11:40:50.230Z,27.30
2018-11-05T11:41:50.210Z,26.40
2018-11-05T11:42:50.215Z,27.90
2018-11-05T11:43:50.210Z,28.50
2018-11-05T11:44:50.248Z,27.60
2018-11-05T11:45:50.218Z,27.30
2018-11-05T11:46:50.218Z,26.20
2018-11-05T11:47:50.223Z,26.40
2018-11-05T11:48:50.220Z,26.90
2018-11-05T11:49:50.206Z,26.70
2018-11-05T11:50:50.213Z,27.00
2018-11-05T11:51:50.204Z,26.80
2018-11-05T11:52:50.369Z,26.80
2018-11-05T11:53:50.233Z,26.60
2018-11-05T11:54:50.283Z,25.70
2018-11-05T11:55:50.226Z,25.90
2018-11-05T11:56:50.287Z,26.60
2018-11-05T11:57:50.227Z,26.40
2018-11-05T11:58:50.217Z,26.90
2018-11-05T11:59:50.241Z,27.50
2018-11-05T12:00:50.227Z,26.10
2018-11-05T12:01:50.221Z,26.20
2018-11-05T12:02:50.227Z,25.50
2018-11-05T12:03:50.219Z,26.90
2018-11-05T12:04:50.320Z,26.80
2018-11-05T12:05:50.241Z,27.80
2018-11-05T12:06:50.219Z,26.90
2018-11-05T12:07:50.228Z,26.60
2018-11-05T12:08:50.232Z,27.40
2018-11-05T12:09:50.269Z,26.90
2018-11-05T12:10:50.240Z,26.40
2018-11-05T12:11:50.233Z,28.00
2018-11-05T12:12:50.235Z,28.10
2018-11-05T12:13:50.358Z,27.50
2018-11-05T12:14:50.449Z,26.60
2018-11-05T12:15:50.241Z,26.80
2018-11-05T12:16:50.255Z,26.90
2018-11-05T12:17:50.256Z,27.10
2018-11-05T12:18:50.263Z,27.80
2018-11-05T12:19:50.252Z,25.50
2018-11-05T12:20:50.243Z,27.80
2018-11-05T12:21:50.251Z,26.80
2018-11-05T12:22:50.251Z,28.40
2018-11-05T12:23:50.249Z,25.70
2018-11-05T12:24:50.300Z,27.30
2018-11-05T12:25:50.247Z,27.20
2018-11-05T12:26:50.252Z,26.90
2018-11-05T12:27:50.304Z,26.00
2018-11-05T12:28:50.268Z,26.00
2018-11-05T12:29:50.263Z,26.40
2018-11-05T12:30:50.249Z,27.10
2018-11-05T12:31:50.250Z,25.30
2018-11-05T12:32:50.280Z,25.60
2018-11-05T12:33:50.269Z,24.40
2018-11-05T12:34:50.254Z,26.30
2018-11-05T12:35:50.283Z,26.70
2018-11-05T12:36:50.269Z,26.20
2018-11-05T12:37:50.278Z,26.40
2018-11-05T12:38:50.461Z,25.80
2018-11-05T12:39:50.279Z,26.50
2018-11-05T12:40:50.336Z,26.80
2018-11-05T12:41:50.276Z,26.20
2018-11-05T12:42:50.269Z,25.40
2018-11-05T12:43:50.276Z,25.10
2018-11-05T12:44:50.342Z,26.80
2018-11-05T12:45:52.062Z,25.10
2018-11-05T12:46:50.274Z,26.00
2018-11-05T12:47:50.282Z,25.20
2018-11-05T12:48:50.292Z,25.10
2018-11-05T12:49:50.276Z,25.50
2018-11-05T12:50:50.297Z,25.60
2018-11-05T12:51:50.311Z,26.00
2018-11-05T12:52:50.286Z,26.10